sensor_id;sensor_type;location;lat;lon;timestamp;pressure;altitude;pressure_sealevel;temperature;humidity
76586;BME280;65251;51.022;13.736;2023-02-05T00:00:24;101563.75;;;-0.57;63.38
76586;BME280;65251;51.022;13.736;2023-02-05T00:00:55;101569.06;;;-0.59;63.63
76586;BME280;65251;51.022;13.736;2023-02-05T00:01:25;101572.53;;;-0.58;63.45
76586;BME280;65251;51.022;13.736;2023-02-05T00:01:57;101563.84;;;-0.59;63.29
76586;BME280;65251;51.022;13.736;2023-02-05T00:02:28;101566.00;;;-0.67;63.43
76586;BME280;65251;51.022;13.736;2023-02-05T00:02:59;101566.84;;;-0.66;63.76
76586;BME280;65251;51.022;13.736;2023-02-05T00:03:30;101570.53;;;-0.71;63.57
76586;BME280;65251;51.022;13.736;2023-02-05T00:04:02;101566.22;;;-0.72;63.82
76586;BME280;65251;51.022;13.736;2023-02-05T00:04:33;101565.47;;;-0.74;64.00
76586;BME280;65251;51.022;13.736;2023-02-05T00:05:05;101569.84;;;-0.74;64.00
76586;BME280;65251;51.022;13.736;2023-02-05T00:05:36;101564.69;;;-0.76;63.89
76586;BME280;65251;51.022;13.736;2023-02-05T00:06:06;101564.75;;;-0.77;64.10
76586;BME280;65251;51.022;13.736;2023-02-05T00:06:38;101570.00;;;-0.77;64.43
76586;BME280;65251;51.022;13.736;2023-02-05T00:07:09;101560.38;;;-0.77;64.29
76586;BME280;65251;51.022;13.736;2023-02-05T00:07:40;101564.75;;;-0.77;64.38
76586;BME280;65251;51.022;13.736;2023-02-05T00:08:11;101565.75;;;-0.80;64.68
76586;BME280;65251;51.022;13.736;2023-02-05T00:08:42;101565.00;;;-0.82;64.96
76586;BME280;65251;51.022;13.736;2023-02-05T00:09:14;101559.84;;;-0.83;64.52
76586;BME280;65251;51.022;13.736;2023-02-05T00:09:46;101561.47;;;-0.81;64.98
76586;BME280;65251;51.022;13.736;2023-02-05T00:10:17;101561.69;;;-0.85;64.49
76586;BME280;65251;51.022;13.736;2023-02-05T00:10:50;101554.84;;;-0.88;64.61
76586;BME280;65251;51.022;13.736;2023-02-05T00:11:22;101567.22;;;-0.91;64.94
76586;BME280;65251;51.022;13.736;2023-02-05T00:11:53;101563.75;;;-0.92;64.75
76586;BME280;65251;51.022;13.736;2023-02-05T00:12:24;101556.91;;;-0.94;64.97
76586;BME280;65251;51.022;13.736;2023-02-05T00:12:56;101560.50;;;-0.97;64.81
76586;BME280;65251;51.022;13.736;2023-02-05T00:13:26;101556.38;;;-1.01;64.87
76586;BME280;65251;51.022;13.736;2023-02-05T00:13:57;101556.44;;;-1.02;65.19
76586;BME280;65251;51.022;13.736;2023-02-05T00:14:29;101559.06;;;-1.02;65.20
76586;BME280;65251;51.022;13.736;2023-02-05T00:14:59;101552.97;;;-1.03;65.14
76586;BME280;65251;51.022;13.736;2023-02-05T00:15:30;101552.13;;;-1.03;65.31
76586;BME280;65251;51.022;13.736;2023-02-05T00:16:06;101561.03;;;-1.08;65.08
76586;BME280;65251;51.022;13.736;2023-02-05T00:16:37;101548.81;;;-1.07;65.44
76586;BME280;65251;51.022;13.736;2023-02-05T00:17:08;101550.56;;;-1.08;65.50
76586;BME280;65251;51.022;13.736;2023-02-05T00:17:40;101555.81;;;-1.08;65.53
76586;BME280;65251;51.022;13.736;2023-02-05T00:18:10;101547.81;;;-1.05;65.63
76586;BME280;65251;51.022;13.736;2023-02-05T00:18:42;101550.50;;;-1.06;65.50
76586;BME280;65251;51.022;13.736;2023-02-05T00:19:13;101555.72;;;-1.06;65.68
76586;BME280;65251;51.022;13.736;2023-02-05T00:19:44;101550.66;;;-1.09;65.46
76586;BME280;65251;51.022;13.736;2023-02-05T00:20:15;101554.19;;;-1.10;65.68
76586;BME280;65251;51.022;13.736;2023-02-05T00:20:47;101562.94;;;-1.11;65.83
76586;BME280;65251;51.022;13.736;2023-02-05T00:21:19;101557.78;;;-1.13;65.67
76586;BME280;65251;51.022;13.736;2023-02-05T00:21:51;101560.47;;;-1.14;65.86
76586;BME280;65251;51.022;13.736;2023-02-05T00:22:22;101558.78;;;-1.15;65.66
76586;BME280;65251;51.022;13.736;2023-02-05T00:22:53;101556.25;;;-1.17;66.09
76586;BME280;65251;51.022;13.736;2023-02-05T00:23:26;101557.34;;;-1.21;65.77
76586;BME280;65251;51.022;13.736;2023-02-05T00:23:56;101554.72;;;-1.21;66.17
76586;BME280;65251;51.022;13.736;2023-02-05T00:24:28;101560.78;;;-1.20;65.93
76586;BME280;65251;51.022;13.736;2023-02-05T00:25:00;101558.31;;;-1.23;65.81
76586;BME280;65251;51.022;13.736;2023-02-05T00:25:31;101557.47;;;-1.24;65.86
76586;BME280;65251;51.022;13.736;2023-02-05T00:26:04;101555.84;;;-1.26;66.07
76586;BME280;65251;51.022;13.736;2023-02-05T00:26:37;101562.00;;;-1.27;66.31
76586;BME280;65251;51.022;13.736;2023-02-05T00:27:07;101545.75;;;-1.34;66.12
76586;BME280;65251;51.022;13.736;2023-02-05T00:27:39;101551.69;;;-1.30;66.17
76586;BME280;65251;51.022;13.736;2023-02-05T00:28:11;101553.50;;;-1.32;66.30
76586;BME280;65251;51.022;13.736;2023-02-05T00:28:42;101547.56;;;-1.36;66.35
76586;BME280;65251;51.022;13.736;2023-02-05T00:29:13;101555.28;;;-1.33;66.42
76586;BME280;65251;51.022;13.736;2023-02-05T00:29:44;101552.66;;;-1.33;66.56
76586;BME280;65251;51.022;13.736;2023-02-05T00:30:15;101549.97;;;-1.31;66.68
76586;BME280;65251;51.022;13.736;2023-02-05T00:30:46;101550.91;;;-1.32;66.77
76586;BME280;65251;51.022;13.736;2023-02-05T00:31:20;101550.06;;;-1.33;66.59
76586;BME280;65251;51.022;13.736;2023-02-05T00:31:52;101541.34;;;-1.33;66.55
76586;BME280;65251;51.022;13.736;2023-02-05T00:32:22;101545.66;;;-1.32;66.30
76586;BME280;65251;51.022;13.736;2023-02-05T00:32:54;101543.84;;;-1.30;66.51
76586;BME280;65251;51.022;13.736;2023-02-05T00:33:25;101545.59;;;-1.31;66.34
76586;BME280;65251;51.022;13.736;2023-02-05T00:33:56;101544.59;;;-1.28;66.40
76586;BME280;65251;51.022;13.736;2023-02-05T00:34:28;101542.91;;;-1.29;66.57
76586;BME280;65251;51.022;13.736;2023-02-05T00:34:59;101541.22;;;-1.30;66.66
76586;BME280;65251;51.022;13.736;2023-02-05T00:35:29;101550.81;;;-1.31;66.38
76586;BME280;65251;51.022;13.736;2023-02-05T00:36:01;101547.44;;;-1.33;66.67
76586;BME280;65251;51.022;13.736;2023-02-05T00:36:32;101550.06;;;-1.33;66.62
76586;BME280;65251;51.022;13.736;2023-02-05T00:37:03;101553.59;;;-1.34;66.59
76586;BME280;65251;51.022;13.736;2023-02-05T00:37:34;101545.88;;;-1.37;66.57
76586;BME280;65251;51.022;13.736;2023-02-05T00:38:05;101542.50;;;-1.39;66.65
76586;BME280;65251;51.022;13.736;2023-02-05T00:38:36;101546.97;;;-1.41;66.84
76586;BME280;65251;51.022;13.736;2023-02-05T00:39:08;101546.97;;;-1.41;66.71
76586;BME280;65251;51.022;13.736;2023-02-05T00:39:42;101547.03;;;-1.43;67.09
76586;BME280;65251;51.022;13.736;2023-02-05T00:40:12;101544.34;;;-1.41;66.90
76586;BME280;65251;51.022;13.736;2023-02-05T00:40:44;101538.41;;;-1.45;66.84
76586;BME280;65251;51.022;13.736;2023-02-05T00:41:16;101542.03;;;-1.47;66.84
76586;BME280;65251;51.022;13.736;2023-02-05T00:41:47;101543.00;;;-1.50;66.95
76586;BME280;65251;51.022;13.736;2023-02-05T00:42:19;101546.47;;;-1.49;66.94
76586;BME280;65251;51.022;13.736;2023-02-05T00:42:50;101543.16;;;-1.53;67.16
76586;BME280;65251;51.022;13.736;2023-02-05T00:43:20;101550.91;;;-1.51;67.45
76586;BME280;65251;51.022;13.736;2023-02-05T00:43:51;101551.00;;;-1.53;67.27
76586;BME280;65251;51.022;13.736;2023-02-05T00:44:23;101545.81;;;-1.54;67.45
76586;BME280;65251;51.022;13.736;2023-02-05T00:44:53;101547.66;;;-1.56;67.30
76586;BME280;65251;51.022;13.736;2023-02-05T00:45:24;101544.06;;;-1.54;67.69
76586;BME280;65251;51.022;13.736;2023-02-05T00:46:01;101547.66;;;-1.56;67.36
76586;BME280;65251;51.022;13.736;2023-02-05T00:46:32;101552.81;;;-1.55;67.68
76586;BME280;65251;51.022;13.736;2023-02-05T00:47:03;101548.44;;;-1.54;67.60
76586;BME280;65251;51.022;13.736;2023-02-05T00:47:35;101551.19;;;-1.57;67.36
76586;BME280;65251;51.022;13.736;2023-02-05T00:48:06;101557.28;;;-1.57;67.43
76586;BME280;65251;51.022;13.736;2023-02-05T00:48:37;101553.81;;;-1.57;67.53
76586;BME280;65251;51.022;13.736;2023-02-05T00:49:09;101551.97;;;-1.55;67.63
76586;BME280;65251;51.022;13.736;2023-02-05T00:49:40;101553.75;;;-1.56;67.67
76586;BME280;65251;51.022;13.736;2023-02-05T00:50:11;101558.19;;;-1.58;67.86
76586;BME280;65251;51.022;13.736;2023-02-05T00:50:42;101557.28;;;-1.57;67.67
76586;BME280;65251;51.022;13.736;2023-02-05T00:51:13;101558.34;;;-1.61;67.80
76586;BME280;65251;51.022;13.736;2023-02-05T00:51:44;101557.56;;;-1.63;67.67
76586;BME280;65251;51.022;13.736;2023-02-05T00:52:15;101560.25;;;-1.64;67.51
76586;BME280;65251;51.022;13.736;2023-02-05T00:52:46;101560.13;;;-1.61;68.09
76586;BME280;65251;51.022;13.736;2023-02-05T00:53:18;101560.31;;;-1.66;68.17
76586;BME280;65251;51.022;13.736;2023-02-05T00:53:50;101560.31;;;-1.66;68.11
76586;BME280;65251;51.022;13.736;2023-02-05T00:54:20;101566.53;;;-1.68;67.84
76586;BME280;65251;51.022;13.736;2023-02-05T00:54:52;101561.25;;;-1.67;68.22
76586;BME280;65251;51.022;13.736;2023-02-05T00:55:25;101557.84;;;-1.69;68.40
76586;BME280;65251;51.022;13.736;2023-02-05T00:55:55;101568.38;;;-1.70;67.89
76586;BME280;65251;51.022;13.736;2023-02-05T00:56:26;101565.75;;;-1.70;68.11
76586;BME280;65251;51.022;13.736;2023-02-05T00:56:57;101564.91;;;-1.71;68.04
76586;BME280;65251;51.022;13.736;2023-02-05T00:57:29;101570.06;;;-1.69;67.97
76586;BME280;65251;51.022;13.736;2023-02-05T00:57:59;101562.38;;;-1.73;68.21
76586;BME280;65251;51.022;13.736;2023-02-05T00:58:30;101570.13;;;-1.71;68.41
76586;BME280;65251;51.022;13.736;2023-02-05T00:59:02;101562.16;;;-1.68;68.57
76586;BME280;65251;51.022;13.736;2023-02-05T00:59:33;101565.63;;;-1.67;68.54
76586;BME280;65251;51.022;13.736;2023-02-05T01:00:04;101557.84;;;-1.69;68.66
76586;BME280;65251;51.022;13.736;2023-02-05T01:00:38;101562.88;;;-1.64;68.77
76586;BME280;65251;51.022;13.736;2023-02-05T01:01:09;101561.09;;;-1.64;68.35
76586;BME280;65251;51.022;13.736;2023-02-05T01:01:40;101562.81;;;-1.63;68.73
76586;BME280;65251;51.022;13.736;2023-02-05T01:02:12;101557.56;;;-1.63;68.46
76586;BME280;65251;51.022;13.736;2023-02-05T01:02:42;101561.88;;;-1.62;68.43
76586;BME280;65251;51.022;13.736;2023-02-05T01:03:13;101563.66;;;-1.62;68.60
76586;BME280;65251;51.022;13.736;2023-02-05T01:03:45;101558.34;;;-1.61;68.58
76586;BME280;65251;51.022;13.736;2023-02-05T01:04:16;101560.03;;;-1.60;68.34
76586;BME280;65251;51.022;13.736;2023-02-05T01:04:46;101567.78;;;-1.58;68.22
76586;BME280;65251;51.022;13.736;2023-02-05T01:05:18;101558.19;;;-1.58;68.59
76586;BME280;65251;51.022;13.736;2023-02-05T01:05:49;101564.31;;;-1.59;68.32
76586;BME280;65251;51.022;13.736;2023-02-05T01:06:20;101565.25;;;-1.60;68.40
76586;BME280;65251;51.022;13.736;2023-02-05T01:06:52;101554.72;;;-1.58;67.70
76586;BME280;65251;51.022;13.736;2023-02-05T01:07:22;101560.81;;;-1.58;67.55
76586;BME280;65251;51.022;13.736;2023-02-05T01:07:53;101552.97;;;-1.58;67.91
76586;BME280;65251;51.022;13.736;2023-02-05T01:08:25;101557.28;;;-1.57;67.59
76586;BME280;65251;51.022;13.736;2023-02-05T01:08:55;101562.44;;;-1.55;67.90
76586;BME280;65251;51.022;13.736;2023-02-05T01:09:26;101551.44;;;-1.62;67.90
76586;BME280;65251;51.022;13.736;2023-02-05T01:09:59;101563.47;;;-1.59;67.79
76586;BME280;65251;51.022;13.736;2023-02-05T01:10:30;101559.22;;;-1.60;67.95
76586;BME280;65251;51.022;13.736;2023-02-05T01:11:05;101561.88;;;-1.62;67.81
76586;BME280;65251;51.022;13.736;2023-02-05T01:11:37;101559.34;;;-1.63;67.98
76586;BME280;65251;51.022;13.736;2023-02-05T01:12:08;101560.31;;;-1.66;67.82
76586;BME280;65251;51.022;13.736;2023-02-05T01:12:39;101563.00;;;-1.67;68.06
76586;BME280;65251;51.022;13.736;2023-02-05T01:13:11;101570.00;;;-1.68;68.03
76586;BME280;65251;51.022;13.736;2023-02-05T01:13:41;101565.63;;;-1.67;68.03
76586;BME280;65251;51.022;13.736;2023-02-05T01:14:12;101569.00;;;-1.65;67.38
76586;BME280;65251;51.022;13.736;2023-02-05T01:14:44;101567.19;;;-1.63;67.76
76586;BME280;65251;51.022;13.736;2023-02-05T01:15:15;101577.56;;;-1.62;67.81
76586;BME280;65251;51.022;13.736;2023-02-05T01:15:46;101568.94;;;-1.64;67.50
76586;BME280;65251;51.022;13.736;2023-02-05T01:16:17;101574.09;;;-1.62;67.62
76586;BME280;65251;51.022;13.736;2023-02-05T01:16:48;101569.94;;;-1.66;67.38
76586;BME280;65251;51.022;13.736;2023-02-05T01:17:19;101577.91;;;-1.69;67.44
76586;BME280;65251;51.022;13.736;2023-02-05T01:17:51;101570.97;;;-1.70;67.68
76586;BME280;65251;51.022;13.736;2023-02-05T01:18:22;101578.81;;;-1.70;67.63
76586;BME280;65251;51.022;13.736;2023-02-05T01:18:52;101570.97;;;-1.70;67.97
76586;BME280;65251;51.022;13.736;2023-02-05T01:19:26;101577.25;;;-1.75;68.01
76586;BME280;65251;51.022;13.736;2023-02-05T01:19:57;101571.19;;;-1.75;68.20
76586;BME280;65251;51.022;13.736;2023-02-05T01:20:27;101572.16;;;-1.78;67.97
76586;BME280;65251;51.022;13.736;2023-02-05T01:20:59;101563.28;;;-1.74;68.25
76586;BME280;65251;51.022;13.736;2023-02-05T01:21:30;101577.13;;;-1.71;67.90
76586;BME280;65251;51.022;13.736;2023-02-05T01:22:01;101573.59;;;-1.70;68.07
76586;BME280;65251;51.022;13.736;2023-02-05T01:22:33;101570.25;;;-1.74;67.71
76586;BME280;65251;51.022;13.736;2023-02-05T01:23:04;101575.34;;;-1.71;67.89
76586;BME280;65251;51.022;13.736;2023-02-05T01:23:35;101574.56;;;-1.73;68.20
76586;BME280;65251;51.022;13.736;2023-02-05T01:24:06;101575.56;;;-1.76;68.17
76586;BME280;65251;51.022;13.736;2023-02-05T01:24:37;101568.78;;;-1.80;68.01
76586;BME280;65251;51.022;13.736;2023-02-05T01:25:09;101578.41;;;-1.80;68.16
76586;BME280;65251;51.022;13.736;2023-02-05T01:25:41;101569.78;;;-1.82;67.82
76586;BME280;65251;51.022;13.736;2023-02-05T01:26:12;101564.69;;;-1.85;68.09
76586;BME280;65251;51.022;13.736;2023-02-05T01:26:42;101570.84;;;-1.86;68.15
76586;BME280;65251;51.022;13.736;2023-02-05T01:27:15;101563.13;;;-1.89;68.37
76586;BME280;65251;51.022;13.736;2023-02-05T01:27:45;101574.38;;;-1.87;68.25
76586;BME280;65251;51.022;13.736;2023-02-05T01:28:17;101566.66;;;-1.90;67.82
76586;BME280;65251;51.022;13.736;2023-02-05T01:28:48;101568.28;;;-1.88;67.91
76586;BME280;65251;51.022;13.736;2023-02-05T01:29:19;101571.75;;;-1.87;68.03
76586;BME280;65251;51.022;13.736;2023-02-05T01:29:50;101559.75;;;-1.91;67.94
76586;BME280;65251;51.022;13.736;2023-02-05T01:30:21;101571.03;;;-1.91;67.78
76586;BME280;65251;51.022;13.736;2023-02-05T01:30:52;101567.69;;;-1.94;68.15
76586;BME280;65251;51.022;13.736;2023-02-05T01:31:24;101565.94;;;-1.94;68.16
76586;BME280;65251;51.022;13.736;2023-02-05T01:31:57;101569.41;;;-1.93;68.11
76586;BME280;65251;51.022;13.736;2023-02-05T01:32:29;101563.47;;;-1.97;68.43
76586;BME280;65251;51.022;13.736;2023-02-05T01:33:01;101571.28;;;-1.97;68.41
76586;BME280;65251;51.022;13.736;2023-02-05T01:33:31;101563.47;;;-1.97;68.28
76586;BME280;65251;51.022;13.736;2023-02-05T01:34:02;101561.69;;;-1.96;68.48
76586;BME280;65251;51.022;13.736;2023-02-05T01:34:34;101564.31;;;-1.96;68.69
76586;BME280;65251;51.022;13.736;2023-02-05T01:35:06;101555.63;;;-1.97;68.64
76586;BME280;65251;51.022;13.736;2023-02-05T01:35:37;101561.69;;;-1.96;68.48
76586;BME280;65251;51.022;13.736;2023-02-05T01:36:08;101562.63;;;-1.97;68.73
76586;BME280;65251;51.022;13.736;2023-02-05T01:36:39;101558.41;;;-2.00;68.56
76586;BME280;65251;51.022;13.736;2023-02-05T01:37:10;101560.91;;;-1.98;68.94
76586;BME280;65251;51.022;13.736;2023-02-05T01:37:41;101556.53;;;-1.98;69.05
76586;BME280;65251;51.022;13.736;2023-02-05T01:38:14;101558.25;;;-1.97;69.50
76586;BME280;65251;51.022;13.736;2023-02-05T01:38:45;101557.38;;;-1.97;69.06
76586;BME280;65251;51.022;13.736;2023-02-05T01:39:15;101554.84;;;-1.99;69.03
76586;BME280;65251;51.022;13.736;2023-02-05T01:39:47;101557.47;;;-1.99;68.61
76586;BME280;65251;51.022;13.736;2023-02-05T01:40:20;101564.53;;;-2.01;68.45
76586;BME280;65251;51.022;13.736;2023-02-05T01:40:51;101556.00;;;-2.04;68.77
76586;BME280;65251;51.022;13.736;2023-02-05T01:41:22;101550.75;;;-2.04;69.11
76586;BME280;65251;51.022;13.736;2023-02-05T01:41:53;101559.44;;;-2.04;69.32
76586;BME280;65251;51.022;13.736;2023-02-05T01:42:26;101547.25;;;-2.03;69.14
76586;BME280;65251;51.022;13.736;2023-02-05T01:42:58;101551.63;;;-2.04;68.81
76586;BME280;65251;51.022;13.736;2023-02-05T01:43:29;101551.63;;;-2.04;68.75
76586;BME280;65251;51.022;13.736;2023-02-05T01:44:08;101547.31;;;-2.05;69.16
76586;BME280;65251;51.022;13.736;2023-02-05T01:44:40;101544.81;;;-2.08;68.71
76586;BME280;65251;51.022;13.736;2023-02-05T01:46:02;101541.38;;;-2.09;69.25
76586;BME280;65251;51.022;13.736;2023-02-05T01:46:37;101541.44;;;-2.10;68.84
76586;BME280;65251;51.022;13.736;2023-02-05T01:47:08;101538.75;;;-2.09;69.30
76586;BME280;65251;51.022;13.736;2023-02-05T01:47:38;101538.81;;;-2.10;68.77
76586;BME280;65251;51.022;13.736;2023-02-05T01:48:10;101538.81;;;-2.10;69.33
76586;BME280;65251;51.022;13.736;2023-02-05T01:48:45;101540.66;;;-2.12;69.20
76586;BME280;65251;51.022;13.736;2023-02-05T01:49:20;101532.88;;;-2.14;69.04
76586;BME280;65251;51.022;13.736;2023-02-05T01:49:54;101534.63;;;-2.14;69.33
76586;BME280;65251;51.022;13.736;2023-02-05T01:50:28;101532.88;;;-2.14;69.20
76586;BME280;65251;51.022;13.736;2023-02-05T01:51:04;101532.09;;;-2.16;69.51
76586;BME280;65251;51.022;13.736;2023-02-05T01:51:37;101533.00;;;-2.17;69.51
76586;BME280;65251;51.022;13.736;2023-02-05T01:52:13;101532.16;;;-2.17;69.53
76586;BME280;65251;51.022;13.736;2023-02-05T01:52:46;101527.91;;;-2.20;69.72
76586;BME280;65251;51.022;13.736;2023-02-05T01:53:21;101523.66;;;-2.21;69.70
76586;BME280;65251;51.022;13.736;2023-02-05T01:53:53;101522.69;;;-2.20;70.06
76586;BME280;65251;51.022;13.736;2023-02-05T01:54:27;101521.03;;;-2.21;69.86
76586;BME280;65251;51.022;13.736;2023-02-05T01:55:00;101523.72;;;-2.22;70.00
76586;BME280;65251;51.022;13.736;2023-02-05T01:55:37;101524.50;;;-2.20;70.61
76586;BME280;65251;51.022;13.736;2023-02-05T01:56:15;101517.56;;;-2.21;70.53
76586;BME280;65251;51.022;13.736;2023-02-05T01:56:53;101528.09;;;-2.23;70.51
76586;BME280;65251;51.022;13.736;2023-02-05T01:57:24;101526.44;;;-2.25;70.93
76586;BME280;65251;51.022;13.736;2023-02-05T01:57:58;101522.16;;;-2.26;70.55
76586;BME280;65251;51.022;13.736;2023-02-05T01:58:36;101519.47;;;-2.25;71.02
76586;BME280;65251;51.022;13.736;2023-02-05T01:59:13;101523.06;;;-2.27;71.93
76586;BME280;65251;51.022;13.736;2023-02-05T01:59:49;101522.94;;;-2.24;71.73
76586;BME280;65251;51.022;13.736;2023-02-05T02:00:21;101519.53;;;-2.26;71.80
76586;BME280;65251;51.022;13.736;2023-02-05T02:00:53;101523.91;;;-2.27;72.15
76586;BME280;65251;51.022;13.736;2023-02-05T02:01:26;101522.22;;;-2.28;72.39
76586;BME280;65251;51.022;13.736;2023-02-05T02:01:59;101517.06;;;-2.29;72.27
76586;BME280;65251;51.022;13.736;2023-02-05T02:02:33;101518.75;;;-2.28;72.30
76586;BME280;65251;51.022;13.736;2023-02-05T02:03:05;101518.69;;;-2.27;72.42
76586;BME280;65251;51.022;13.736;2023-02-05T02:03:37;101517.78;;;-2.26;72.50
76586;BME280;65251;51.022;13.736;2023-02-05T02:04:11;101519.59;;;-2.28;72.60
76586;BME280;65251;51.022;13.736;2023-02-05T02:04:48;101523.72;;;-2.22;72.15
76586;BME280;65251;51.022;13.736;2023-02-05T02:05:19;101515.03;;;-2.23;72.13
76586;BME280;65251;51.022;13.736;2023-02-05T02:05:50;101521.09;;;-2.22;72.01
76586;BME280;65251;51.022;13.736;2023-02-05T02:06:21;101521.16;;;-2.24;71.96
76586;BME280;65251;51.022;13.736;2023-02-05T02:06:52;101523.72;;;-2.22;72.34
76586;BME280;65251;51.022;13.736;2023-02-05T02:07:23;101520.03;;;-2.18;71.93
76586;BME280;65251;51.022;13.736;2023-02-05T02:07:54;101521.78;;;-2.19;72.03
76586;BME280;65251;51.022;13.736;2023-02-05T02:08:25;101519.16;;;-2.19;71.81
76586;BME280;65251;51.022;13.736;2023-02-05T02:08:57;101515.81;;;-2.21;72.15
76586;BME280;65251;51.022;13.736;2023-02-05T02:09:28;101513.88;;;-2.17;72.09
76586;BME280;65251;51.022;13.736;2023-02-05T02:10:00;101507.75;;;-2.16;71.74
76586;BME280;65251;51.022;13.736;2023-02-05T02:10:34;101504.16;;;-2.14;71.53
76586;BME280;65251;51.022;13.736;2023-02-05T02:11:07;101506.69;;;-2.12;71.61
76586;BME280;65251;51.022;13.736;2023-02-05T02:11:42;101510.88;;;-2.08;71.34
76586;BME280;65251;51.022;13.736;2023-02-05T02:12:18;101508.19;;;-2.06;71.71
76586;BME280;65251;51.022;13.736;2023-02-05T02:12:52;101504.81;;;-2.09;71.53
76586;BME280;65251;51.022;13.736;2023-02-05T02:13:27;101510.03;;;-2.09;71.01
76586;BME280;65251;51.022;13.736;2023-02-05T02:14:01;101504.09;;;-2.12;71.15
76586;BME280;65251;51.022;13.736;2023-02-05T02:14:38;101503.31;;;-2.14;71.03
76586;BME280;65251;51.022;13.736;2023-02-05T02:15:15;101499.91;;;-2.16;70.94
76586;BME280;65251;51.022;13.736;2023-02-05T02:15:48;101498.22;;;-2.17;71.04
76586;BME280;65251;51.022;13.736;2023-02-05T02:16:20;101497.44;;;-2.19;71.04
76586;BME280;65251;51.022;13.736;2023-02-05T02:16:52;101500.03;;;-2.19;71.13
76586;BME280;65251;51.022;13.736;2023-02-05T02:17:25;101495.78;;;-2.20;71.12
76586;BME280;65251;51.022;13.736;2023-02-05T02:18:00;101501.13;;;-2.23;71.44
76586;BME280;65251;51.022;13.736;2023-02-05T02:18:46;101498.56;;;-2.25;71.26
76586;BME280;65251;51.022;13.736;2023-02-05T02:19:25;101495.06;;;-2.24;71.37
76586;BME280;65251;51.022;13.736;2023-02-05T02:20:01;101488.13;;;-2.25;71.93
76586;BME280;65251;51.022;13.736;2023-02-05T02:20:38;101488.19;;;-2.26;71.86
76586;BME280;65251;51.022;13.736;2023-02-05T02:22:46;101488.00;;;-2.22;71.49
76586;BME280;65251;51.022;13.736;2023-02-05T02:23:29;101489.69;;;-2.21;71.17
76586;BME280;65251;51.022;13.736;2023-02-05T02:24:21;101488.91;;;-2.23;71.18
76586;BME280;65251;51.022;13.736;2023-02-05T02:27:16;101471.75;;;-2.28;71.18
76586;BME280;65251;51.022;13.736;2023-02-05T02:27:56;101477.81;;;-2.28;71.04
76586;BME280;65251;51.022;13.736;2023-02-05T02:28:34;101479.66;;;-2.30;71.14
76586;BME280;65251;51.022;13.736;2023-02-05T02:29:16;101474.50;;;-2.31;71.03
76586;BME280;65251;51.022;13.736;2023-02-05T02:29:54;101473.78;;;-2.35;71.46
76586;BME280;65251;51.022;13.736;2023-02-05T02:30:34;101472.94;;;-2.35;71.19
76586;BME280;65251;51.022;13.736;2023-02-05T02:31:11;101470.47;;;-2.38;71.42
76586;BME280;65251;51.022;13.736;2023-02-05T02:31:49;101476.53;;;-2.38;71.87
76586;BME280;65251;51.022;13.736;2023-02-05T02:32:33;101472.22;;;-2.39;71.57
76586;BME280;65251;51.022;13.736;2023-02-05T02:33:12;101471.47;;;-2.41;71.51
76586;BME280;65251;51.022;13.736;2023-02-05T02:33:48;101471.47;;;-2.41;71.87
76586;BME280;65251;51.022;13.736;2023-02-05T02:34:30;101471.53;;;-2.42;71.67
76586;BME280;65251;51.022;13.736;2023-02-05T02:35:09;101474.16;;;-2.42;71.85
76586;BME280;65251;51.022;13.736;2023-02-05T02:35:47;101466.44;;;-2.46;71.92
76586;BME280;65251;51.022;13.736;2023-02-05T02:36:28;101475.13;;;-2.45;72.43
76586;BME280;65251;51.022;13.736;2023-02-05T02:37:06;101475.91;;;-2.43;72.56
76586;BME280;65251;51.022;13.736;2023-02-05T02:37:45;101469.78;;;-2.42;72.57
76586;BME280;65251;51.022;13.736;2023-02-05T02:38:21;101466.38;;;-2.44;72.71
76586;BME280;65251;51.022;13.736;2023-02-05T02:39:02;101475.06;;;-2.44;72.62
76586;BME280;65251;51.022;13.736;2023-02-05T02:39:41;101466.44;;;-2.46;72.83
76586;BME280;65251;51.022;13.736;2023-02-05T02:40:21;101464.03;;;-2.50;72.55
76586;BME280;65251;51.022;13.736;2023-02-05T02:40:57;101469.19;;;-2.49;72.81
76586;BME280;65251;51.022;13.736;2023-02-05T02:41:40;101468.47;;;-2.52;72.97
76586;BME280;65251;51.022;13.736;2023-02-05T02:42:16;101472.84;;;-2.53;73.43
76586;BME280;65251;51.022;13.736;2023-02-05T02:43:00;101466.78;;;-2.53;73.16
76586;BME280;65251;51.022;13.736;2023-02-05T02:43:43;101467.69;;;-2.54;73.43
76586;BME280;65251;51.022;13.736;2023-02-05T02:44:24;101460.69;;;-2.54;73.76
76586;BME280;65251;51.022;13.736;2023-02-05T02:45:00;101462.66;;;-2.59;73.99
76586;BME280;65251;51.022;13.736;2023-02-05T02:45:35;101460.78;;;-2.55;74.03
76586;BME280;65251;51.022;13.736;2023-02-05T02:46:17;101456.41;;;-2.55;74.23
76586;BME280;65251;51.022;13.736;2023-02-05T02:46:53;101456.34;;;-2.53;73.75
76586;BME280;65251;51.022;13.736;2023-02-05T02:47:28;101456.34;;;-2.53;74.09
76586;BME280;65251;51.022;13.736;2023-02-05T02:48:04;101463.31;;;-2.54;74.25
76586;BME280;65251;51.022;13.736;2023-02-05T02:48:40;101457.97;;;-2.51;74.71
76586;BME280;65251;51.022;13.736;2023-02-05T02:49:15;101457.97;;;-2.51;74.52
76586;BME280;65251;51.022;13.736;2023-02-05T02:49:54;101455.16;;;-2.46;74.13
76586;BME280;65251;51.022;13.736;2023-02-05T02:50:28;101455.09;;;-2.45;74.47
76586;BME280;65251;51.022;13.736;2023-02-05T02:51:06;101452.47;;;-2.45;74.44
76586;BME280;65251;51.022;13.736;2023-02-05T02:51:41;101453.34;;;-2.44;74.33
76586;BME280;65251;51.022;13.736;2023-02-05T02:52:17;101459.34;;;-2.42;74.00
76586;BME280;65251;51.022;13.736;2023-02-05T02:52:53;101455.03;;;-2.43;74.04
76586;BME280;65251;51.022;13.736;2023-02-05T02:53:28;101462.78;;;-2.41;73.95
76586;BME280;65251;51.022;13.736;2023-02-05T02:54:06;101457.41;;;-2.38;74.29
76586;BME280;65251;51.022;13.736;2023-02-05T02:54:41;101458.31;;;-2.39;74.06
76586;BME280;65251;51.022;13.736;2023-02-05T02:55:15;101449.56;;;-2.38;73.87